createdAt,value
2023-03-29T00:02:03.628Z,5.13
2023-03-29T00:04:30.264Z,5.11
2023-03-29T00:06:57.374Z,5.35
2023-03-29T00:09:24.234Z,5.48
2023-03-29T00:11:51.047Z,5.48
2023-03-29T00:14:17.650Z,5.45
2023-03-29T00:16:44.157Z,5.47
2023-03-29T00:19:11.043Z,5.50
2023-03-29T00:21:37.819Z,5.48
2023-03-29T00:24:04.477Z,5.54
2023-03-29T00:26:30.957Z,5.54
2023-03-29T00:28:57.434Z,5.42
2023-03-29T00:31:24.053Z,5.28
2023-03-29T00:33:50.651Z,5.58
2023-03-29T00:36:17.188Z,5.62
2023-03-29T00:38:43.721Z,5.68
2023-03-29T00:41:10.499Z,5.66
2023-03-29T00:43:53.551Z,5.69
2023-03-29T00:46:20.172Z,5.67
2023-03-29T00:48:47.293Z,5.74
2023-03-29T00:51:16.821Z,5.64
2023-03-29T00:53:49.057Z,5.74
2023-03-29T00:56:24.602Z,5.73
2023-03-29T00:59:03.534Z,5.79
2023-03-29T01:04:43.494Z,5.77
2023-03-29T01:07:17.992Z,5.78
2023-03-29T01:09:50.851Z,5.50
2023-03-29T01:12:23.635Z,5.67
2023-03-29T01:14:59.482Z,5.84
2023-03-29T01:17:26.043Z,5.87
2023-03-29T01:19:59.290Z,5.87
2023-03-29T01:22:31.933Z,5.87
2023-03-29T01:25:10.461Z,5.69
2023-03-29T01:28:09.292Z,5.89
2023-03-29T01:30:48.216Z,6.00
2023-03-29T01:33:19.236Z,5.96
2023-03-29T01:35:54.780Z,5.93
2023-03-29T01:38:39.304Z,5.89
2023-03-29T01:41:05.893Z,5.59
2023-03-29T01:43:47.596Z,5.95
2023-03-29T01:46:37.400Z,5.97
2023-03-29T01:49:16.452Z,5.97
2023-03-29T01:52:28.265Z,5.93
2023-03-29T01:55:18.336Z,5.67
2023-03-29T01:57:46.641Z,5.92
2023-03-29T02:00:21.345Z,5.99
2023-03-29T02:02:51.489Z,5.98
2023-03-29T02:05:19.441Z,6.06
2023-03-29T02:07:47.568Z,6.00
2023-03-29T02:10:15.691Z,6.06
2023-03-29T02:12:42.450Z,6.04
2023-03-29T02:15:18.799Z,5.62
2023-03-29T02:17:46.573Z,6.06
2023-03-29T02:20:20.471Z,5.86
2023-03-29T02:22:51.074Z,6.08
2023-03-29T02:25:18.775Z,6.08
2023-03-29T02:27:45.992Z,5.98
2023-03-29T02:30:13.796Z,6.10
2023-03-29T02:32:51.973Z,5.79
2023-03-29T02:35:25.243Z,5.74
2023-03-29T02:37:54.461Z,6.12
2023-03-29T02:40:23.396Z,6.01
2023-03-29T02:42:50.301Z,5.71
2023-03-29T02:45:18.779Z,6.12
2023-03-29T02:47:51.332Z,6.08
2023-03-29T02:50:19.836Z,5.68
2023-03-29T02:53:00.406Z,5.80
2023-03-29T02:55:29.357Z,6.09
2023-03-29T02:57:55.817Z,5.87
2023-03-29T03:00:22.455Z,5.97
2023-03-29T03:02:49.193Z,6.20
2023-03-29T03:05:15.734Z,6.23
2023-03-29T03:07:42.369Z,6.22
2023-03-29T03:10:10.186Z,6.22
2023-03-29T03:12:37.033Z,6.34
2023-03-29T03:15:05.095Z,6.23
2023-03-29T03:17:32.854Z,6.31
2023-03-29T03:19:59.979Z,6.29
2023-03-29T03:22:26.425Z,6.21
2023-03-29T03:24:52.846Z,6.37
2023-03-29T03:27:19.345Z,5.98
2023-03-29T03:29:45.784Z,6.47
2023-03-29T03:32:12.382Z,6.49
2023-03-29T03:34:38.873Z,5.96
2023-03-29T03:37:05.395Z,6.49
2023-03-29T03:39:31.980Z,6.42
2023-03-29T03:41:58.465Z,6.33
2023-03-29T03:44:25.112Z,6.41
2023-03-29T03:46:51.569Z,5.98
2023-03-29T03:49:18.039Z,6.25
2023-03-29T03:51:44.544Z,6.42
2023-03-29T03:54:11.243Z,6.39
2023-03-29T03:56:37.764Z,6.36
2023-03-29T03:59:05.393Z,6.49
2023-03-29T04:01:31.904Z,6.44
2023-03-29T04:03:58.432Z,6.44
2023-03-29T04:06:25.002Z,6.43
2023-03-29T04:08:51.472Z,6.42
2023-03-29T04:11:17.935Z,6.46
2023-03-29T04:13:44.385Z,6.48
2023-03-29T04:16:10.979Z,6.42
2023-03-29T04:18:37.627Z,6.43
2023-03-29T04:21:04.607Z,6.40
2023-03-29T04:23:31.193Z,6.08
2023-03-29T04:25:57.634Z,6.43
2023-03-29T04:28:24.069Z,6.51
2023-03-29T04:30:50.520Z,6.15
2023-03-29T04:33:16.992Z,6.34
2023-03-29T04:35:43.496Z,6.36
2023-03-29T04:38:10.002Z,6.11
2023-03-29T04:40:37.243Z,6.48
2023-03-29T04:43:04.253Z,6.51
2023-03-29T04:45:30.750Z,6.57
2023-03-29T04:47:58.209Z,6.60
2023-03-29T04:50:25.034Z,6.58
2023-03-29T04:52:51.472Z,6.56
2023-03-29T04:55:17.933Z,6.57
2023-03-29T04:57:44.450Z,6.43
2023-03-29T05:00:11.481Z,6.49
2023-03-29T05:02:38.029Z,6.58
2023-03-29T05:05:04.932Z,6.33
2023-03-29T05:07:31.575Z,6.61
2023-03-29T05:09:58.032Z,6.62
2023-03-29T05:12:24.537Z,6.60
2023-03-29T05:14:51.006Z,6.25
2023-03-29T05:17:17.524Z,6.61
2023-03-29T05:19:44.170Z,6.58
2023-03-29T05:22:10.615Z,6.72
2023-03-29T05:24:37.148Z,6.43
2023-03-29T05:27:03.772Z,6.83
2023-03-29T05:29:30.255Z,6.49
2023-03-29T05:31:56.761Z,6.91
2023-03-29T05:34:23.341Z,7.00
2023-03-29T05:36:49.884Z,7.00
2023-03-29T05:39:16.406Z,6.98
2023-03-29T05:41:43.089Z,7.01
2023-03-29T05:44:09.969Z,7.08
2023-03-29T05:46:36.516Z,7.16
2023-03-29T05:49:04.040Z,7.07
2023-03-29T05:51:30.480Z,7.17
2023-03-29T05:53:56.967Z,6.85
2023-03-29T05:56:23.358Z,6.61
2023-03-29T05:58:50.241Z,7.25
2023-03-29T06:01:17.237Z,7.24
2023-03-29T06:03:44.206Z,7.34
2023-03-29T06:06:12.352Z,7.31
2023-03-29T06:08:38.813Z,7.31
2023-03-29T06:11:06.787Z,6.80
2023-03-29T06:13:34.915Z,7.45
2023-03-29T06:16:01.661Z,7.16
2023-03-29T06:18:28.244Z,7.45
2023-03-29T06:20:54.884Z,7.51
2023-03-29T06:23:22.666Z,7.54
2023-03-29T06:25:49.886Z,7.51
2023-03-29T06:28:16.324Z,7.65
2023-03-29T06:30:43.548Z,7.61
2023-03-29T06:33:10.297Z,7.62
2023-03-29T06:35:37.362Z,7.67
2023-03-29T06:38:04.248Z,7.69
2023-03-29T06:40:31.532Z,7.75
2023-03-29T06:42:58.388Z,7.65
2023-03-29T06:45:27.485Z,7.64
2023-03-29T06:47:55.784Z,7.73
2023-03-29T06:50:22.533Z,7.31
2023-03-29T06:52:49.923Z,7.88
2023-03-29T06:55:16.559Z,7.90
2023-03-29T06:57:43.216Z,7.84
2023-03-29T07:00:10.905Z,7.98
2023-03-29T07:02:37.616Z,7.98
2023-03-29T07:05:04.427Z,8.01
2023-03-29T07:07:30.956Z,7.92
2023-03-29T07:09:57.413Z,7.70
2023-03-29T07:12:24.149Z,7.81
2023-03-29T07:14:50.629Z,7.76
2023-03-29T07:17:17.136Z,7.52
2023-03-29T07:19:43.633Z,7.58
2023-03-29T07:22:10.127Z,8.02
2023-03-29T07:24:36.656Z,7.61
2023-03-29T07:27:04.517Z,7.98
2023-03-29T07:29:32.339Z,8.07
2023-03-29T07:31:59.031Z,8.08
2023-03-29T07:34:25.683Z,8.06
2023-03-29T07:36:52.140Z,7.93
2023-03-29T07:39:18.598Z,8.18
2023-03-29T07:41:45.129Z,8.32
2023-03-29T07:44:11.640Z,8.44
2023-03-29T07:46:38.202Z,8.50
2023-03-29T07:49:04.653Z,8.64
2023-03-29T07:51:31.174Z,8.60
2023-03-29T07:53:57.628Z,8.67
2023-03-29T07:56:24.229Z,8.61
2023-03-29T07:58:50.719Z,8.50
2023-03-29T08:01:19.393Z,8.38
2023-03-29T08:03:46.249Z,8.83
2023-03-29T08:06:12.672Z,9.08
2023-03-29T08:08:39.071Z,8.93
2023-03-29T08:11:05.710Z,8.87
2023-03-29T08:13:32.292Z,8.96
2023-03-29T08:15:58.728Z,8.93
2023-03-29T08:18:25.209Z,8.81
2023-03-29T08:20:51.758Z,8.70
2023-03-29T08:23:18.271Z,9.07
2023-03-29T08:25:46.316Z,9.33
2023-03-29T08:28:12.990Z,9.48
2023-03-29T08:30:39.534Z,9.69
2023-03-29T08:33:06.109Z,9.68
2023-03-29T08:35:32.659Z,9.79
2023-03-29T08:37:59.113Z,9.62
2023-03-29T08:40:28.222Z,9.69
2023-03-29T08:43:12.369Z,9.92
2023-03-29T08:45:56.433Z,9.76
2023-03-29T08:48:33.636Z,9.81
2023-03-29T08:51:05.209Z,9.44
2023-03-29T08:53:45.342Z,9.20
2023-03-29T08:56:16.778Z,8.92
2023-03-29T08:58:45.145Z,9.11
2023-03-29T09:01:11.932Z,8.90
2023-03-29T09:03:50.278Z,9.19
2023-03-29T09:06:20.145Z,9.13
2023-03-29T09:08:49.188Z,8.90
2023-03-29T09:11:24.639Z,9.09
2023-03-29T09:14:09.339Z,9.24
2023-03-29T09:16:50.781Z,9.53
2023-03-29T09:19:37.415Z,9.31
2023-03-29T09:22:12.840Z,9.35
2023-03-29T09:25:06.015Z,9.09
2023-03-29T09:27:58.569Z,9.44
2023-03-29T09:30:50.562Z,9.81
2023-03-29T09:33:25.261Z,10.04
2023-03-29T09:36:04.043Z,9.70
2023-03-29T09:38:31.104Z,10.04
2023-03-29T09:41:10.379Z,9.74
2023-03-29T09:43:41.217Z,9.94
2023-03-29T09:46:16.880Z,9.86
2023-03-29T09:48:45.581Z,9.88
2023-03-29T09:51:14.097Z,9.95
2023-03-29T09:53:40.643Z,10.10
2023-03-29T09:56:07.730Z,10.62
2023-03-29T09:58:34.820Z,10.52
2023-03-29T10:01:06.368Z,10.31
2023-03-29T10:03:33.297Z,10.77
2023-03-29T10:06:01.059Z,10.26
2023-03-29T10:08:56.018Z,10.71
2023-03-29T10:11:31.637Z,10.57
2023-03-29T10:14:02.838Z,11.12
2023-03-29T10:16:33.875Z,11.12
2023-03-29T10:19:20.036Z,11.63
2023-03-29T10:21:51.196Z,11.37
2023-03-29T10:24:22.840Z,11.44
2023-03-29T10:26:55.640Z,11.42
2023-03-29T10:29:24.704Z,11.78
2023-03-29T10:31:52.512Z,11.90
2023-03-29T10:34:20.084Z,11.65
2023-03-29T10:36:59.639Z,12.18
2023-03-29T10:39:29.645Z,11.85
2023-03-29T10:41:58.897Z,13.44
2023-03-29T10:44:33.236Z,13.11
2023-03-29T10:47:20.451Z,12.91
2023-03-29T10:49:55.035Z,12.63
2023-03-29T10:52:23.047Z,11.91
2023-03-29T10:54:52.593Z,12.33
2023-03-29T10:57:38.208Z,13.27
2023-03-29T11:00:17.605Z,12.04
2023-03-29T11:03:11.560Z,12.40
2023-03-29T11:05:59.165Z,12.33
2023-03-29T11:08:51.875Z,12.29
2023-03-29T11:11:54.178Z,12.79
2023-03-29T11:14:54.250Z,12.48
2023-03-29T11:17:35.441Z,12.31
2023-03-29T11:20:26.619Z,12.39
2023-03-29T11:23:26.053Z,12.79
2023-03-29T11:25:57.897Z,12.65
2023-03-29T11:28:38.537Z,12.66
2023-03-29T11:31:18.176Z,12.63
2023-03-29T11:34:12.612Z,12.83
2023-03-29T11:36:47.758Z,12.93
2023-03-29T11:39:28.087Z,12.93
2023-03-29T11:42:01.386Z,12.91
2023-03-29T11:44:30.555Z,12.81
2023-03-29T11:46:56.992Z,12.93
2023-03-29T11:49:29.217Z,13.11
2023-03-29T11:52:01.685Z,13.26
2023-03-29T11:54:50.369Z,13.37
2023-03-29T11:57:38.479Z,13.43
2023-03-29T12:00:11.257Z,13.40
2023-03-29T12:02:42.488Z,13.71
2023-03-29T12:05:22.266Z,13.50
2023-03-29T12:08:04.465Z,13.54
2023-03-29T12:10:37.649Z,13.81
2023-03-29T12:13:19.426Z,13.51
2023-03-29T12:15:52.702Z,13.35
2023-03-29T12:18:29.178Z,13.81
2023-03-29T12:21:06.786Z,14.03
2023-03-29T12:23:33.851Z,13.36
2023-03-29T12:26:03.288Z,13.41
2023-03-29T12:29:03.462Z,13.62
2023-03-29T12:31:55.042Z,13.84
2023-03-29T12:34:42.225Z,13.92
2023-03-29T12:37:08.757Z,14.01
2023-03-29T12:39:36.884Z,13.92
2023-03-29T12:42:23.712Z,14.05
2023-03-29T12:44:58.155Z,14.06
2023-03-29T12:47:27.447Z,13.55
2023-03-29T12:49:56.616Z,13.71
2023-03-29T12:52:30.023Z,13.77
2023-03-29T12:54:59.921Z,13.80
2023-03-29T12:57:46.945Z,13.59
2023-03-29T13:00:27.461Z,13.59
2023-03-29T13:03:34.592Z,13.99
2023-03-29T13:06:04.284Z,14.20
2023-03-29T13:08:40.414Z,14.06
2023-03-29T13:11:13.064Z,14.43
2023-03-29T13:13:41.655Z,14.23
2023-03-29T13:16:20.200Z,13.98
2023-03-29T13:18:55.431Z,14.07
2023-03-29T13:21:39.152Z,14.45
2023-03-29T13:24:23.506Z,14.59
2023-03-29T13:27:17.212Z,14.77
2023-03-29T13:30:03.885Z,15.09
2023-03-29T13:32:39.327Z,14.12
2023-03-29T13:35:17.126Z,14.31
2023-03-29T13:38:02.376Z,14.97
2023-03-29T13:40:41.024Z,14.87
2023-03-29T13:43:19.059Z,14.64
2023-03-29T13:46:16.082Z,14.61
2023-03-29T13:48:42.526Z,14.57
2023-03-29T13:51:23.064Z,14.46
2023-03-29T13:54:03.347Z,14.73
2023-03-29T13:56:40.164Z,14.96
2023-03-29T13:59:20.426Z,14.73
2023-03-29T14:01:51.381Z,14.84
2023-03-29T14:04:24.366Z,14.77
2023-03-29T14:06:54.379Z,14.96
2023-03-29T14:09:27.078Z,14.64
2023-03-29T14:11:54.097Z,14.78
2023-03-29T14:14:26.985Z,15.02
2023-03-29T14:16:56.257Z,15.59
2023-03-29T14:19:35.106Z,15.34
2023-03-29T14:22:06.909Z,14.92
2023-03-29T14:24:45.530Z,15.52
2023-03-29T14:27:12.277Z,15.14
2023-03-29T14:29:38.946Z,14.78
2023-03-29T14:32:29.517Z,14.83
2023-03-29T14:34:56.011Z,14.69
2023-03-29T14:37:26.917Z,14.89
2023-03-29T14:39:54.341Z,14.83
2023-03-29T14:42:25.683Z,14.81
2023-03-29T14:45:06.363Z,14.96
2023-03-29T14:47:33.773Z,14.85
2023-03-29T14:50:01.020Z,14.86
2023-03-29T14:52:29.825Z,14.85
2023-03-29T14:54:59.362Z,14.75
2023-03-29T14:57:27.898Z,14.77
2023-03-29T14:59:59.997Z,14.56
2023-03-29T15:02:31.956Z,14.55
2023-03-29T15:05:02.440Z,14.24
2023-03-29T15:07:29.831Z,14.70
2023-03-29T15:09:58.111Z,14.51
2023-03-29T15:12:25.314Z,14.37
2023-03-29T15:14:52.830Z,14.53
2023-03-29T15:17:47.664Z,14.53
2023-03-29T15:20:29.433Z,14.56
2023-03-29T15:22:58.112Z,14.50
2023-03-29T15:25:28.099Z,14.46
2023-03-29T15:27:59.037Z,14.31
2023-03-29T15:30:38.063Z,14.43
2023-03-29T15:33:09.550Z,14.59
2023-03-29T15:35:36.948Z,14.73
2023-03-29T15:38:03.417Z,14.24
2023-03-29T15:40:30.275Z,14.61
2023-03-29T15:42:56.938Z,14.46
2023-03-29T15:45:23.468Z,14.33
2023-03-29T15:47:50.043Z,14.72
2023-03-29T15:50:16.725Z,14.74
2023-03-29T15:52:43.315Z,14.61
2023-03-29T15:55:10.334Z,14.70
2023-03-29T15:57:37.146Z,14.79
2023-03-29T16:00:06.370Z,14.70
2023-03-29T16:02:33.092Z,14.65
2023-03-29T16:04:59.624Z,14.68
2023-03-29T16:07:26.126Z,14.73
2023-03-29T16:09:52.625Z,14.69
2023-03-29T16:12:19.181Z,14.63
2023-03-29T16:14:45.664Z,14.75
2023-03-29T16:17:12.165Z,14.62
2023-03-29T16:19:38.702Z,14.77
2023-03-29T16:22:05.386Z,14.53
2023-03-29T16:24:33.729Z,14.72
2023-03-29T16:27:01.223Z,14.70
2023-03-29T16:29:28.306Z,14.69
2023-03-29T16:31:54.952Z,14.61
2023-03-29T16:34:22.205Z,14.66
2023-03-29T16:36:49.702Z,14.61
2023-03-29T16:39:16.884Z,14.26
2023-03-29T16:41:43.548Z,14.49
2023-03-29T16:44:15.933Z,14.51
2023-03-29T16:46:42.444Z,14.56
2023-03-29T16:49:13.252Z,14.41
2023-03-29T16:51:40.543Z,14.53
2023-03-29T16:54:07.046Z,14.50
2023-03-29T16:56:33.530Z,14.38
2023-03-29T16:59:00.001Z,14.47
2023-03-29T17:01:26.514Z,13.97
2023-03-29T17:03:53.209Z,14.31
2023-03-29T17:06:19.724Z,14.34
2023-03-29T17:08:46.229Z,14.34
2023-03-29T17:11:12.964Z,14.32
2023-03-29T17:13:39.732Z,14.29
2023-03-29T17:16:06.880Z,14.30
2023-03-29T17:18:33.710Z,14.27
2023-03-29T17:21:00.312Z,14.05
2023-03-29T17:23:26.893Z,14.27
2023-03-29T17:25:56.437Z,14.24
2023-03-29T17:28:23.808Z,14.16
2023-03-29T17:30:50.384Z,14.15
2023-03-29T17:33:18.227Z,14.16
2023-03-29T17:35:46.427Z,14.10
2023-03-29T17:38:12.989Z,14.10
2023-03-29T17:40:39.507Z,13.89
2023-03-29T17:43:06.180Z,14.06
2023-03-29T17:45:32.727Z,13.95
2023-03-29T17:47:59.323Z,13.98
2023-03-29T17:50:25.899Z,13.99
2023-03-29T17:52:52.437Z,14.02
2023-03-29T17:55:19.101Z,13.60
2023-03-29T17:57:45.652Z,14.00
2023-03-29T18:00:14.358Z,14.01
2023-03-29T18:02:41.463Z,14.06
2023-03-29T18:05:08.898Z,13.65
2023-03-29T18:07:35.882Z,14.07
2023-03-29T18:10:02.668Z,13.92
2023-03-29T18:12:29.471Z,13.95
2023-03-29T18:14:56.108Z,13.87
2023-03-29T18:17:23.764Z,13.58
2023-03-29T18:19:50.345Z,13.30
2023-03-29T18:22:16.983Z,13.63
2023-03-29T18:24:43.665Z,13.63
2023-03-29T18:27:10.312Z,13.39
2023-03-29T18:29:37.327Z,13.31
2023-03-29T18:32:04.526Z,13.58
2023-03-29T18:34:32.396Z,13.64
2023-03-29T18:36:59.084Z,13.34
2023-03-29T18:39:25.695Z,13.54
2023-03-29T18:41:52.184Z,13.65
2023-03-29T18:44:18.941Z,13.58
2023-03-29T18:46:45.411Z,13.19
2023-03-29T18:49:11.966Z,13.57
2023-03-29T18:51:38.612Z,13.61
2023-03-29T18:54:05.529Z,13.57
2023-03-29T18:56:32.131Z,13.29
2023-03-29T18:58:58.614Z,13.51
2023-03-29T19:01:25.977Z,13.50
2023-03-29T19:03:52.441Z,13.51
2023-03-29T19:06:19.131Z,13.49
2023-03-29T19:08:45.640Z,13.55
2023-03-29T19:11:12.617Z,13.58
2023-03-29T19:13:39.122Z,13.59
2023-03-29T19:16:06.298Z,13.53
2023-03-29T19:18:33.452Z,13.58
2023-03-29T19:21:00.194Z,13.07
2023-03-29T19:23:26.904Z,13.51
2023-03-29T19:25:58.968Z,13.53
2023-03-29T19:28:26.227Z,13.48
2023-03-29T19:30:53.106Z,13.32
2023-03-29T19:33:19.988Z,13.39
2023-03-29T19:35:49.266Z,13.37
2023-03-29T19:38:15.896Z,13.22
2023-03-29T19:40:46.835Z,13.24
2023-03-29T19:43:13.589Z,13.17
2023-03-29T19:45:40.073Z,13.14
2023-03-29T19:48:06.815Z,12.84
2023-03-29T19:50:33.272Z,13.01
2023-03-29T19:52:59.869Z,12.89
2023-03-29T19:55:26.435Z,12.98
2023-03-29T19:57:52.897Z,13.08
2023-03-29T20:00:19.820Z,13.06
2023-03-29T20:02:46.305Z,12.64
2023-03-29T20:05:13.002Z,12.69
2023-03-29T20:07:39.493Z,12.99
2023-03-29T20:10:06.420Z,13.12
2023-03-29T20:12:32.926Z,13.15
2023-03-29T20:14:59.440Z,13.21
2023-03-29T20:17:26.048Z,13.22
2023-03-29T20:19:52.617Z,13.27
2023-03-29T20:22:19.515Z,13.05
2023-03-29T20:24:46.030Z,13.14
2023-03-29T20:27:12.694Z,13.11
2023-03-29T20:29:39.309Z,12.98
2023-03-29T20:32:05.873Z,13.20
2023-03-29T20:34:32.412Z,13.31
2023-03-29T20:36:58.882Z,13.12
2023-03-29T20:39:25.984Z,12.94
2023-03-29T20:41:52.668Z,12.90
2023-03-29T20:44:20.345Z,13.11
2023-03-29T20:46:46.974Z,13.15
2023-03-29T20:49:13.563Z,12.58
2023-03-29T20:51:40.055Z,12.71
2023-03-29T20:54:06.878Z,13.14
2023-03-29T20:56:36.336Z,12.97
2023-03-29T20:59:02.820Z,12.88
2023-03-29T21:01:30.043Z,13.01
2023-03-29T21:03:56.746Z,12.98
2023-03-29T21:06:23.344Z,12.73
2023-03-29T21:08:51.421Z,12.74
2023-03-29T21:11:19.180Z,12.60
2023-03-29T21:13:46.272Z,12.77
2023-03-29T21:16:12.842Z,12.94
2023-03-29T21:18:40.236Z,12.80
2023-03-29T21:21:08.096Z,12.80
2023-03-29T21:23:36.320Z,12.76
2023-03-29T21:26:04.372Z,12.69
2023-03-29T21:28:31.120Z,12.19
2023-03-29T21:30:57.726Z,12.56
2023-03-29T21:33:24.399Z,12.65
2023-03-29T21:35:50.928Z,12.65
2023-03-29T21:38:17.724Z,12.51
2023-03-29T21:40:44.406Z,12.24
2023-03-29T21:43:11.012Z,12.66
2023-03-29T21:45:37.639Z,12.69
2023-03-29T21:48:04.476Z,12.51
2023-03-29T21:50:33.353Z,12.74
2023-03-29T21:53:01.589Z,12.66
2023-03-29T21:55:28.283Z,12.80
2023-03-29T21:57:55.085Z,12.62
2023-03-29T22:00:21.705Z,12.41
2023-03-29T22:02:49.477Z,12.85
2023-03-29T22:05:16.101Z,12.80
2023-03-29T22:07:42.681Z,12.79
2023-03-29T22:10:11.450Z,12.78
2023-03-29T22:12:39.175Z,12.77
2023-03-29T22:15:08.087Z,12.91
2023-03-29T22:17:34.975Z,12.80
2023-03-29T22:20:01.664Z,12.74
2023-03-29T22:22:28.729Z,12.76
2023-03-29T22:24:55.349Z,12.74
2023-03-29T22:27:23.196Z,12.41
2023-03-29T22:29:49.931Z,12.88
2023-03-29T22:32:16.551Z,12.76
2023-03-29T22:34:43.216Z,13.01
2023-03-29T22:37:09.709Z,13.20
2023-03-29T22:39:36.283Z,13.28
2023-03-29T22:42:02.909Z,13.61
2023-03-29T22:44:29.362Z,13.90
2023-03-29T22:46:55.868Z,14.20
2023-03-29T22:49:22.420Z,14.39
2023-03-29T22:51:48.920Z,14.64
2023-03-29T22:54:15.426Z,14.58
2023-03-29T22:56:41.915Z,14.80
2023-03-29T22:59:08.643Z,14.89
2023-03-29T23:01:35.146Z,14.68
2023-03-29T23:04:01.634Z,14.67
2023-03-29T23:06:28.144Z,15.05
2023-03-29T23:08:54.586Z,14.84
2023-03-29T23:11:21.235Z,15.12
2023-03-29T23:13:47.648Z,14.85
2023-03-29T23:16:15.293Z,14.99
2023-03-29T23:18:41.781Z,14.58
2023-03-29T23:21:08.336Z,14.49
2023-03-29T23:23:35.290Z,14.16
2023-03-29T23:26:02.277Z,14.81
2023-03-29T23:28:29.395Z,14.64
2023-03-29T23:31:07.039Z,14.59
2023-03-29T23:33:35.763Z,14.57
2023-03-29T23:36:04.704Z,14.69
2023-03-29T23:38:33.101Z,14.12
2023-03-29T23:41:03.076Z,14.70
2023-03-29T23:43:33.022Z,14.64
2023-03-29T23:46:01.679Z,14.44
2023-03-29T23:48:28.556Z,14.39
2023-03-29T23:50:55.384Z,14.34
2023-03-29T23:53:21.818Z,14.45
2023-03-29T23:55:48.356Z,14.33
2023-03-29T23:58:16.065Z,14.34
